Time;durP1;ratioP1;P1;durP2;ratioP2;P2;SDS_P1;SDS_P2;PMS_P1;PMS_P2;Temp;Humidity;BMP_temperature;BMP_pressure;BME280_temperature;BME280_humidity;BME280_pressure;Samples;Min_cycle;Max_cycle;Signal;HPM_P1;HPM_P2
2024/03/17 00:00:14;;;;;;;0.10;0.10;;;;;;;;;;2064971;28;20156;-67
2024/03/17 00:01:33;;;;;;;0.20;0.20;;;;;;;;;;2066993;28;20387;-69
2024/03/17 00:02:53;;;;;;;0.52;0.10;;;;;;;;;;2066791;28;20042;-68
2024/03/17 00:04:11;;;;;;;0.75;0.17;;;;;;;;;;2065461;28;20030;-65
2024/03/17 00:05:31;;;;;;;1.58;0.17;;;;;;;;;;2064081;28;20034;-68
2024/03/17 00:06:49;;;;;;;0.10;0.05;;;;;;;;;;2095136;28;20032;-66
2024/03/17 00:08:08;;;;;;;0.20;0.20;;;;;;;;;;2093704;28;20417;-65
2024/03/17 00:09:27;;;;;;;0.30;0.20;;;;;;;;;;2079342;28;20038;-65
2024/03/17 00:10:49;;;;;;;1.77;0.35;;;;;;;;;;2066076;28;20035;-65
2024/03/17 00:12:08;;;;;;;0.10;0.10;;;;;;;;;;2063756;28;20053;-66
2024/03/17 00:13:27;;;;;;;0.40;0.10;;;;;;;;;;2064066;28;20034;-68
2024/03/17 00:14:46;;;;;;;0.52;0.20;;;;;;;;;;2064468;28;20118;-66
2024/03/17 00:16:06;;;;;;;0.22;0.10;;;;;;;;;;2065227;28;20038;-68
2024/03/17 00:17:25;;;;;;;0.98;0.50;;;;;;;;;;2064927;28;20063;-66
2024/03/17 00:18:44;;;;;;;0.15;0.08;;;;;;;;;;2067380;28;20077;-65
2024/03/17 00:20:08;;;;;;;2.17;0.20;;;;;;;;;;2065870;28;20483;-66
2024/03/17 00:21:27;;;;;;;0.75;0.20;;;;;;;;;;2096097;28;20028;-65
2024/03/17 00:22:51;;;;;;;0.13;0.10;;;;;;;;;;2092060;28;20024;-67
2024/03/17 00:24:09;;;;;;;0.15;0.10;;;;;;;;;;2101075;28;20020;-67
2024/03/17 00:25:29;;;;;;;0.50;0.10;;;;;;;;;;2079863;28;20121;-69
2024/03/17 00:26:49;;;;;;;0.30;0.10;;;;;;;;;;2064521;28;20105;-67
2024/03/17 00:28:08;;;;;;;0.20;0.10;;;;;;;;;;2064931;28;20034;-66
2024/03/17 00:29:28;;;;;;;0.25;0.20;;;;;;;;;;2062440;28;20034;-67
2024/03/17 00:30:47;;;;;;;0.20;0.10;;;;;;;;;;2104785;28;20032;-67
2024/03/17 00:32:06;;;;;;;0.30;0.20;;;;;;;;;;2080113;28;20038;-67
2024/03/17 00:33:25;;;;;;;0.45;0.10;;;;;;;;;;2063486;28;20031;-67
2024/03/17 00:34:44;;;;;;;0.20;0.20;;;;;;;;;;2094968;28;20033;-67
2024/03/17 00:36:03;;;;;;;0.10;0.10;;;;;;;;;;2074326;28;20026;-67
2024/03/17 00:37:22;;;;;;;0.40;0.10;;;;;;;;;;2062731;28;20023;-67
2024/03/17 00:38:41;;;;;;;1.58;0.20;;;;;;;;;;2062864;28;20030;-67
2024/03/17 00:40:01;;;;;;;0.73;0.10;;;;;;;;;;2096817;28;20465;-67
2024/03/17 00:41:21;;;;;;;1.10;0.30;;;;;;;;;;2076231;28;20048;-67
2024/03/17 00:42:44;;;;;;;0.35;0.20;;;;;;;;;;2062713;28;20019;-67
2024/03/17 00:44:03;;;;;;;;;;;;;;;;;;2063122;28;20383;-67
2024/03/17 00:45:22;;;;;;;0.30;0.30;;;;;;;;;;2104462;28;19907;-67
2024/03/17 00:46:42;;;;;;;0.70;0.35;;;;;;;;;;2079230;28;20484;-67
2024/03/17 00:48:01;;;;;;;1.60;0.20;;;;;;;;;;2063804;28;20038;-66
2024/03/17 00:49:20;;;;;;;0.85;0.20;;;;;;;;;;2064750;28;20031;-66
2024/03/17 00:50:39;;;;;;;5.75;0.20;;;;;;;;;;2062643;28;20038;-67
2024/03/17 00:51:58;;;;;;;0.55;0.30;;;;;;;;;;2062944;28;20030;-67
2024/03/17 00:53:17;;;;;;;0.70;0.20;;;;;;;;;;2063964;28;20436;-67
2024/03/17 00:54:36;;;;;;;0.57;0.10;;;;;;;;;;2064272;28;20050;-66
2024/03/17 00:55:58;;;;;;;1.85;0.10;;;;;;;;;;2063188;28;20109;-70
2024/03/17 00:57:17;;;;;;;0.30;0.20;;;;;;;;;;2062681;28;20034;-67
2024/03/17 00:58:36;;;;;;;0.77;0.20;;;;;;;;;;2062817;28;20479;-67
2024/03/17 00:59:56;;;;;;;0.10;0.10;;;;;;;;;;2063589;28;20034;-66
2024/03/17 01:01:15;;;;;;;3.50;0.50;;;;;;;;;;2096493;28;20028;-67
2024/03/17 01:02:33;;;;;;;0.22;0.10;;;;;;;;;;2077033;28;20023;-67
2024/03/17 01:03:52;;;;;;;0.90;0.10;;;;;;;;;;2095556;28;20024;-67
2024/03/17 01:05:12;;;;;;;0.30;0.20;;;;;;;;;;2073790;28;20030;-67
2024/03/17 01:06:32;;;;;;;0.73;0.10;;;;;;;;;;2064102;28;20105;-67
2024/03/17 01:07:51;;;;;;;1.15;0.22;;;;;;;;;;2063457;28;20054;-67
2024/03/17 01:09:10;;;;;;;0.43;0.10;;;;;;;;;;2063754;28;20038;-67
2024/03/17 01:10:29;;;;;;;1.08;0.32;;;;;;;;;;2063975;28;20433;-67
2024/03/17 01:11:48;;;;;;;0.20;0.10;;;;;;;;;;2064455;28;20161;-67
2024/03/17 01:13:08;;;;;;;2.50;0.13;;;;;;;;;;2064000;28;20117;-67
2024/03/17 01:14:27;;;;;;;4.55;0.20;;;;;;;;;;2063980;28;20027;-67
2024/03/17 01:15:51;;;;;;;0.30;0.13;;;;;;;;;;2064386;28;20026;-67
2024/03/17 01:17:10;;;;;;;3.33;0.30;;;;;;;;;;2102255;28;20048;-67
2024/03/17 01:18:29;;;;;;;0.40;0.20;;;;;;;;;;2078735;28;20027;-68
2024/03/17 01:19:47;;;;;;;0.85;0.20;;;;;;;;;;2063071;28;20026;-68
2024/03/17 01:21:07;;;;;;;0.68;0.25;;;;;;;;;;2063069;28;20455;-68
2024/03/17 01:22:26;;;;;;;3.70;0.20;;;;;;;;;;2062749;28;20459;-67
2024/03/17 01:23:45;;;;;;;0.22;0.20;;;;;;;;;;2063570;28;20050;-67
2024/03/17 01:25:04;;;;;;;2.13;0.55;;;;;;;;;;2065449;28;20026;-67
2024/03/17 01:26:23;;;;;;;0.20;0.20;;;;;;;;;;2063872;28;20034;-67
2024/03/17 01:27:43;;;;;;;1.98;0.20;;;;;;;;;;2064379;28;20042;-67
2024/03/17 01:29:02;;;;;;;0.55;0.20;;;;;;;;;;2063420;28;20030;-67
2024/03/17 01:30:22;;;;;;;0.25;0.20;;;;;;;;;;2063620;28;20546;-67
2024/03/17 01:31:41;;;;;;;1.95;0.20;;;;;;;;;;2063177;28;20030;-68
2024/03/17 01:33:00;;;;;;;0.20;0.20;;;;;;;;;;2062641;28;20030;-66
2024/03/17 01:34:20;;;;;;;1.75;0.30;;;;;;;;;;2063884;28;20125;-66
2024/03/17 01:35:39;;;;;;;1.17;0.28;;;;;;;;;;2062980;28;20117;-66
2024/03/17 01:36:57;;;;;;;0.73;0.10;;;;;;;;;;2063413;28;20510;-66
2024/03/17 01:38:16;;;;;;;0.20;0.20;;;;;;;;;;2063470;28;20614;-66
2024/03/17 01:39:35;;;;;;;1.20;0.13;;;;;;;;;;2062539;28;20027;-66
2024/03/17 01:40:54;;;;;;;2.08;0.47;;;;;;;;;;2064048;28;20086;-66
2024/03/17 01:42:13;;;;;;;0.20;0.20;;;;;;;;;;2065162;28;20107;-67
2024/03/17 01:43:32;;;;;;;1.33;0.20;;;;;;;;;;2062911;28;20501;-66
2024/03/17 01:44:51;;;;;;;1.58;0.32;;;;;;;;;;2063446;28;20034;-67
2024/03/17 01:46:12;;;;;;;0.82;0.13;;;;;;;;;;2064270;28;20022;-66
2024/03/17 01:47:31;;;;;;;0.30;0.30;;;;;;;;;;2095604;28;20036;-67
2024/03/17 01:48:51;;;;;;;0.40;0.22;;;;;;;;;;2074767;28;20027;-67
2024/03/17 01:50:11;;;;;;;0.55;0.17;;;;;;;;;;2103137;28;20060;-67
2024/03/17 01:51:30;;;;;;;1.65;0.20;;;;;;;;;;2079014;28;20030;-66
2024/03/17 01:52:50;;;;;;;2.28;0.35;;;;;;;;;;2063912;28;20026;-67
2024/03/17 01:54:09;;;;;;;0.52;0.20;;;;;;;;;;2062861;28;20026;-66
2024/03/17 01:55:28;;;;;;;0.90;0.38;;;;;;;;;;2062822;28;20050;-67
2024/03/17 01:56:47;;;;;;;2.05;0.38;;;;;;;;;;2096833;28;20033;-66
2024/03/17 01:58:10;;;;;;;1.33;0.40;;;;;;;;;;2075557;28;20098;-66
2024/03/17 01:59:29;;;;;;;0.35;0.30;;;;;;;;;;2063490;28;20026;-66
2024/03/17 02:00:48;;;;;;;0.98;0.22;;;;;;;;;;2103060;28;20028;-67
2024/03/17 02:02:07;;;;;;;1.13;0.10;;;;;;;;;;2078784;28;20022;-69
2024/03/17 02:03:26;;;;;;;0.50;0.30;;;;;;;;;;2062739;28;20543;-66
2024/03/17 02:04:45;;;;;;;0.70;0.20;;;;;;;;;;2063023;28;20347;-66
2024/03/17 02:06:05;;;;;;;1.38;0.20;;;;;;;;;;2063537;28;20034;-67
2024/03/17 02:07:24;;;;;;;1.05;0.50;;;;;;;;;;2062612;28;20046;-66
2024/03/17 02:08:47;;;;;;;0.95;0.20;;;;;;;;;;2064404;28;20483;-67
2024/03/17 02:10:08;;;;;;;0.22;0.20;;;;;;;;;;2063400;28;20027;-67
2024/03/17 02:11:28;;;;;;;1.83;0.20;;;;;;;;;;2063209;28;20488;-66
2024/03/17 02:12:48;;;;;;;0.47;0.10;;;;;;;;;;2062441;28;20957;-67
2024/03/17 02:14:07;;;;;;;0.28;0.20;;;;;;;;;;2062846;28;20496;-67
2024/03/17 02:15:26;;;;;;;0.82;0.22;;;;;;;;;;2061992;28;20026;-67
2024/03/17 02:16:45;;;;;;;0.35;0.15;;;;;;;;;;2063136;28;20487;-67
2024/03/17 02:18:05;;;;;;;2.38;0.45;;;;;;;;;;2062397;28;20026;-67
2024/03/17 02:19:24;;;;;;;0.13;0.10;;;;;;;;;;2062077;28;20110;-67
2024/03/17 02:20:55;;;;;;;2.08;0.20;;;;;;;;;;2103882;28;20033;-66
2024/03/17 02:22:15;;;;;;;0.60;0.30;;;;;;;;;;2072193;28;20030;-67
2024/03/17 02:23:33;;;;;;;0.20;0.20;;;;;;;;;;2062554;28;20065;-67
2024/03/17 02:24:52;;;;;;;0.10;0.10;;;;;;;;;;2064801;28;20031;-67
2024/03/17 02:26:11;;;;;;;0.30;0.20;;;;;;;;;;2062367;28;20044;-67
2024/03/17 02:27:30;;;;;;;0.45;0.20;;;;;;;;;;2063282;28;20023;-66
2024/03/17 02:28:49;;;;;;;0.88;0.20;;;;;;;;;;2095932;28;20405;-68
2024/03/17 02:30:09;;;;;;;0.40;0.20;;;;;;;;;;2074900;28;20062;-67
2024/03/17 02:31:28;;;;;;;0.38;0.10;;;;;;;;;;2063365;28;20387;-67
2024/03/17 02:32:51;;;;;;;0.75;0.10;;;;;;;;;;2062767;28;20672;-67
2024/03/17 02:34:10;;;;;;;0.30;0.10;;;;;;;;;;2061552;28;20030;-67
2024/03/17 02:35:29;;;;;;;0.47;0.30;;;;;;;;;;2063266;28;20101;-67
2024/03/17 02:36:48;;;;;;;1.17;0.20;;;;;;;;;;2063169;28;20026;-67
2024/03/17 02:38:09;;;;;;;0.30;0.30;;;;;;;;;;2063381;28;20026;-66
2024/03/17 02:39:34;;;;;;;2.55;0.25;;;;;;;;;;2062741;28;20018;-66
2024/03/17 02:40:53;;;;;;;0.55;0.20;;;;;;;;;;2061150;28;20422;-66
2024/03/17 02:42:12;;;;;;;0.20;0.20;;;;;;;;;;2062524;28;20105;-66
2024/03/17 02:43:31;;;;;;;0.50;0.20;;;;;;;;;;2062613;28;20519;-66
2024/03/17 02:44:50;;;;;;;0.43;0.15;;;;;;;;;;2062817;28;20479;-66
2024/03/17 02:46:13;;;;;;;0.85;0.20;;;;;;;;;;2064377;28;20450;-66
2024/03/17 02:47:32;;;;;;;0.60;0.40;;;;;;;;;;2064020;28;20161;-66
2024/03/17 02:48:52;;;;;;;0.73;0.10;;;;;;;;;;2096354;28;20421;-66
2024/03/17 02:50:11;;;;;;;0.35;0.30;;;;;;;;;;2101419;28;20508;-66
2024/03/17 02:51:30;;;;;;;0.25;0.20;;;;;;;;;;2079954;28;20038;-66
2024/03/17 02:52:49;;;;;;;0.90;0.30;;;;;;;;;;2063899;28;20031;-66
2024/03/17 02:54:08;;;;;;;0.70;0.20;;;;;;;;;;2064477;28;20106;-67
2024/03/17 02:55:27;;;;;;;0.40;0.20;;;;;;;;;;2064112;28;20042;-67
2024/03/17 02:56:46;;;;;;;0.68;0.40;;;;;;;;;;2064433;28;20054;-67
2024/03/17 02:58:06;;;;;;;1.98;0.30;;;;;;;;;;2063747;28;20030;-66
2024/03/17 02:59:26;;;;;;;0.60;0.20;;;;;;;;;;2064212;28;20023;-66
2024/03/17 03:00:45;;;;;;;0.98;0.28;;;;;;;;;;2063215;28;20043;-66
2024/03/17 03:02:04;;;;;;;0.45;0.35;;;;;;;;;;2063693;28;20434;-67
2024/03/17 03:03:23;;;;;;;3.30;0.28;;;;;;;;;;2063343;28;20022;-66
2024/03/17 03:04:43;;;;;;;0.30;0.20;;;;;;;;;;2064277;28;20023;-67
2024/03/17 03:06:04;;;;;;;2.17;0.20;;;;;;;;;;2063444;28;20058;-66
2024/03/17 03:07:23;;;;;;;0.47;0.10;;;;;;;;;;2062728;28;20072;-66
2024/03/17 03:08:42;;;;;;;0.90;0.20;;;;;;;;;;2094814;28;20020;-66
2024/03/17 03:10:01;;;;;;;2.92;0.28;;;;;;;;;;2100866;28;20413;-66
2024/03/17 03:11:20;;;;;;;1.63;0.40;;;;;;;;;;2080826;28;20027;-66
2024/03/17 03:12:39;;;;;;;1.65;0.43;;;;;;;;;;2064039;28;20026;-66
2024/03/17 03:13:58;;;;;;;0.20;0.13;;;;;;;;;;2063857;28;20031;-66
2024/03/17 03:15:18;;;;;;;2.28;0.20;;;;;;;;;;2096914;28;20020;-66
2024/03/17 03:16:38;;;;;;;0.38;0.17;;;;;;;;;;2076098;28;20109;-66
2024/03/17 03:17:57;;;;;;;11.27;0.45;;;;;;;;;;2063665;28;20446;-66
2024/03/17 03:19:16;;;;;;;0.95;0.20;;;;;;;;;;2064092;28;20034;-67
2024/03/17 03:20:35;;;;;;;0.30;0.20;;;;;;;;;;2063744;28;20019;-66
2024/03/17 03:21:54;;;;;;;0.95;0.20;;;;;;;;;;2064043;28;20112;-66
2024/03/17 03:23:13;;;;;;;0.90;0.30;;;;;;;;;;2062665;28;20026;-66
2024/03/17 03:24:32;;;;;;;0.63;0.20;;;;;;;;;;2064003;28;20058;-66
2024/03/17 03:25:54;;;;;;;1.25;0.20;;;;;;;;;;2063888;28;20030;-66
2024/03/17 03:27:13;;;;;;;0.73;0.30;;;;;;;;;;2064926;28;20062;-66
2024/03/17 03:28:35;;;;;;;0.50;0.15;;;;;;;;;;2064505;28;20536;-66
2024/03/17 03:29:56;;;;;;;1.17;0.28;;;;;;;;;;2061466;28;20506;-66
2024/03/17 03:31:15;;;;;;;0.75;0.32;;;;;;;;;;2060744;28;20030;-66
2024/03/17 03:32:34;;;;;;;0.22;0.20;;;;;;;;;;2061917;28;20102;-67
2024/03/17 03:33:53;;;;;;;1.45;0.25;;;;;;;;;;2063761;28;20085;-66
2024/03/17 03:35:12;;;;;;;0.40;0.20;;;;;;;;;;2063896;28;20054;-68
2024/03/17 03:36:31;;;;;;;0.40;0.30;;;;;;;;;;2063570;28;20035;-66
2024/03/17 03:37:50;;;;;;;1.75;0.30;;;;;;;;;;2062830;28;20681;-66
2024/03/17 03:39:11;;;;;;;2.78;0.25;;;;;;;;;;2096597;28;20033;-66
2024/03/17 03:40:30;;;;;;;2.33;0.40;;;;;;;;;;2073674;28;20030;-66
2024/03/17 03:41:50;;;;;;;3.72;0.20;;;;;;;;;;2104305;28;20409;-66
2024/03/17 03:43:09;;;;;;;3.90;0.30;;;;;;;;;;2081671;28;20038;-66
2024/03/17 03:44:28;;;;;;;1.52;0.32;;;;;;;;;;2065156;28;20426;-66
2024/03/17 03:45:47;;;;;;;1.48;0.20;;;;;;;;;;2064558;28;20038;-66
2024/03/17 03:47:07;;;;;;;2.42;0.28;;;;;;;;;;2063457;28;20022;-66
2024/03/17 03:48:26;;;;;;;0.45;0.30;;;;;;;;;;2066870;28;20038;-67
2024/03/17 03:49:45;;;;;;;1.58;0.22;;;;;;;;;;2065039;28;20030;-67
2024/03/17 03:51:07;;;;;;;1.52;0.22;;;;;;;;;;2065367;28;20034;-67
2024/03/17 03:52:26;;;;;;;2.00;0.30;;;;;;;;;;2064021;28;20034;-66
2024/03/17 03:53:45;;;;;;;0.35;0.10;;;;;;;;;;2063242;28;20034;-67
2024/03/17 03:55:07;;;;;;;3.30;0.30;;;;;;;;;;2065342;28;20117;-66
2024/03/17 03:56:26;;;;;;;1.05;0.40;;;;;;;;;;2062151;28;20117;-66
2024/03/17 03:57:50;;;;;;;1.00;0.32;;;;;;;;;;2065211;28;20032;-66
2024/03/17 03:59:09;;;;;;;0.77;0.35;;;;;;;;;;2064303;28;20388;-66
2024/03/17 04:00:31;;;;;;;5.93;0.68;;;;;;;;;;2063478;28;20039;-66
2024/03/17 04:01:50;;;;;;;4.10;0.50;;;;;;;;;;2069295;28;20481;-66
2024/03/17 04:03:09;;;;;;;0.40;0.30;;;;;;;;;;2065207;28;20034;-67
2024/03/17 04:04:28;;;;;;;0.98;0.85;;;;;;;;;;2100136;28;20040;-66
2024/03/17 04:05:47;;;;;;;2.67;0.38;;;;;;;;;;2079744;28;20027;-67
2024/03/17 04:07:08;;;;;;;5.93;0.50;;;;;;;;;;2065575;28;20030;-66
2024/03/17 04:08:26;;;;;;;0.85;0.43;;;;;;;;;;2066352;28;20048;-66
2024/03/17 04:09:45;;;;;;;0.47;0.28;;;;;;;;;;2066342;28;20030;-66
2024/03/17 04:11:04;;;;;;;1.63;0.28;;;;;;;;;;2062751;28;20034;-66
2024/03/17 04:12:27;;;;;;;1.55;0.40;;;;;;;;;;2063905;28;20514;-66
2024/03/17 04:13:48;;;;;;;;;;;;;;;;;;2065575;28;20061;-67
2024/03/17 04:15:09;;;;;;;1.40;0.55;;;;;;;;;;2096701;28;19913;-66
2024/03/17 04:16:31;;;;;;;5.03;0.77;;;;;;;;;;2092827;28;20029;-66
2024/03/17 04:17:50;;;;;;;2.92;0.30;;;;;;;;;;2102281;28;20024;-67
2024/03/17 04:19:09;;;;;;;1.00;0.35;;;;;;;;;;2082784;28;20435;-67
2024/03/17 04:20:27;;;;;;;2.58;0.32;;;;;;;;;;2065620;28;20034;-67
2024/03/17 04:21:46;;;;;;;0.40;0.17;;;;;;;;;;2065220;28;20023;-67
2024/03/17 04:23:05;;;;;;;1.67;0.40;;;;;;;;;;2096419;28;20016;-67
2024/03/17 04:24:24;;;;;;;3.60;0.73;;;;;;;;;;2076631;28;20030;-69
2024/03/17 04:25:43;;;;;;;1.45;0.32;;;;;;;;;;2064910;28;20058;-66
2024/03/17 04:27:04;;;;;;;1.70;0.30;;;;;;;;;;2065606;28;20030;-67
2024/03/17 04:28:23;;;;;;;4.63;0.80;;;;;;;;;;2063426;28;20040;-67
2024/03/17 04:29:42;;;;;;;4.22;0.63;;;;;;;;;;2096600;28;20513;-66
2024/03/17 04:31:04;;;;;;;1.83;0.60;;;;;;;;;;2076244;28;20031;-66
2024/03/17 04:32:23;;;;;;;2.45;0.40;;;;;;;;;;2064559;28;20426;-67
2024/03/17 04:33:42;;;;;;;3.33;0.30;;;;;;;;;;2096436;28;20285;-67
2024/03/17 04:35:02;;;;;;;1.95;0.57;;;;;;;;;;2091960;28;20032;-67
2024/03/17 04:36:21;;;;;;;1.70;0.32;;;;;;;;;;2079877;28;20529;-66
2024/03/17 04:37:40;;;;;;;1.55;0.40;;;;;;;;;;2065965;28;20446;-66
2024/03/17 04:38:59;;;;;;;2.75;0.40;;;;;;;;;;2065871;28;20113;-66
2024/03/17 04:40:18;;;;;;;2.00;0.47;;;;;;;;;;2064622;28;20042;-66
2024/03/17 04:41:40;;;;;;;3.03;0.40;;;;;;;;;;2065214;28;20515;-66
2024/03/17 04:42:59;;;;;;;2.28;0.43;;;;;;;;;;2064952;28;20026;-66
2024/03/17 04:44:18;;;;;;;2.88;0.60;;;;;;;;;;2064628;28;20018;-65
2024/03/17 04:45:37;;;;;;;2.55;0.45;;;;;;;;;;2064513;28;20019;-66
2024/03/17 04:46:56;;;;;;;0.47;0.30;;;;;;;;;;2064234;28;20038;-67
2024/03/17 04:48:15;;;;;;;0.30;0.22;;;;;;;;;;2065059;28;20515;-66
2024/03/17 04:49:35;;;;;;;2.60;0.80;;;;;;;;;;2066233;28;20038;-66
2024/03/17 04:50:54;;;;;;;2.70;0.32;;;;;;;;;;2065852;28;20101;-66
2024/03/17 04:52:15;;;;;;;1.00;0.40;;;;;;;;;;2064502;28;20046;-67
2024/03/17 04:53:34;;;;;;;0.98;0.30;;;;;;;;;;2062312;28;20109;-66
2024/03/17 04:54:53;;;;;;;1.02;0.40;;;;;;;;;;2096095;28;20040;-66
2024/03/17 04:56:11;;;;;;;2.35;1.02;;;;;;;;;;2077929;28;20403;-66
2024/03/17 04:57:30;;;;;;;3.67;0.43;;;;;;;;;;2066367;28;20038;-66
2024/03/17 04:58:49;;;;;;;1.83;0.35;;;;;;;;;;2062928;28;20030;-66
2024/03/17 05:00:08;;;;;;;2.00;0.50;;;;;;;;;;2095900;28;20100;-65
2024/03/17 05:01:27;;;;;;;1.85;0.50;;;;;;;;;;2075856;28;20088;-67
2024/03/17 05:02:47;;;;;;;2.05;0.43;;;;;;;;;;2065111;28;20026;-66
2024/03/17 05:04:05;;;;;;;3.13;0.50;;;;;;;;;;2065121;28;20043;-66
2024/03/17 05:05:24;;;;;;;5.30;0.47;;;;;;;;;;2064387;28;20035;-66
2024/03/17 05:06:46;;;;;;;3.63;0.73;;;;;;;;;;2064277;28;20023;-66
2024/03/17 05:08:05;;;;;;;5.80;0.45;;;;;;;;;;2067190;28;20042;-66
2024/03/17 05:09:24;;;;;;;1.75;0.70;;;;;;;;;;2064791;28;20034;-66
2024/03/17 05:10:43;;;;;;;1.65;0.30;;;;;;;;;;2065292;28;20030;-66
2024/03/17 05:12:02;;;;;;;2.88;0.60;;;;;;;;;;2064559;28;20024;-66
2024/03/17 05:13:21;;;;;;;2.53;0.40;;;;;;;;;;2066400;28;20579;-66
2024/03/17 05:14:41;;;;;;;1.45;0.57;;;;;;;;;;2066187;28;20348;-66
2024/03/17 05:16:00;;;;;;;1.65;0.65;;;;;;;;;;2065121;28;20034;-66
2024/03/17 05:17:18;;;;;;;5.93;0.50;;;;;;;;;;2065682;28;20046;-66
2024/03/17 05:18:39;;;;;;;1.25;0.30;;;;;;;;;;2063400;28;20022;-66
2024/03/17 05:19:58;;;;;;;1.00;0.40;;;;;;;;;;2062233;28;20030;-67
2024/03/17 05:21:17;;;;;;;2.35;0.50;;;;;;;;;;2063793;28;20026;-66
2024/03/17 05:22:36;;;;;;;3.80;0.85;;;;;;;;;;2064227;28;20429;-66
2024/03/17 05:23:56;;;;;;;1.40;0.40;;;;;;;;;;2065321;28;20042;-66
2024/03/17 05:25:15;;;;;;;5.00;0.80;;;;;;;;;;2064102;28;20117;-66
2024/03/17 05:26:34;;;;;;;3.03;0.43;;;;;;;;;;2062421;28;20022;-66
2024/03/17 05:27:53;;;;;;;2.22;0.43;;;;;;;;;;2095222;28;20036;-66
2024/03/17 05:29:12;;;;;;;1.75;0.43;;;;;;;;;;2079375;28;20034;-66
2024/03/17 05:30:31;;;;;;;2.53;0.50;;;;;;;;;;2063434;28;20519;-66
2024/03/17 05:31:50;;;;;;;4.32;0.75;;;;;;;;;;2063478;28;20026;-66
2024/03/17 05:33:09;;;;;;;2.95;0.60;;;;;;;;;;2064358;28;20030;-66
2024/03/17 05:34:28;;;;;;;0.90;0.43;;;;;;;;;;2065010;28;20034;-65
2024/03/17 05:35:58;;;;;;;2.15;0.73;;;;;;;;;;2061869;28;20034;-66
2024/03/17 05:37:17;;;;;;;5.32;0.50;;;;;;;;;;2063001;28;20121;-66
2024/03/17 05:38:36;;;;;;;5.18;0.47;;;;;;;;;;2062250;28;20109;-66
2024/03/17 05:39:55;;;;;;;3.72;0.57;;;;;;;;;;2062398;28;20098;-66
2024/03/17 05:41:14;;;;;;;6.05;0.88;;;;;;;;;;2065234;28;20402;-66
2024/03/17 05:42:33;;;;;;;3.33;1.52;;;;;;;;;;2064060;28;20608;-66
2024/03/17 05:43:51;;;;;;;4.35;0.55;;;;;;;;;;2062737;28;20030;-66
2024/03/17 05:45:13;;;;;;;3.65;0.40;;;;;;;;;;2067105;28;20578;-66
2024/03/17 05:46:32;;;;;;;0.98;0.85;;;;;;;;;;2065927;28;20030;-66
2024/03/17 05:47:51;;;;;;;1.60;0.40;;;;;;;;;;2064310;28;21175;-66
2024/03/17 05:49:10;;;;;;;3.15;0.50;;;;;;;;;;2102694;28;20130;-68
2024/03/17 05:50:29;;;;;;;2.50;0.70;;;;;;;;;;2081638;28;20031;-66
2024/03/17 05:51:48;;;;;;;4.35;0.90;;;;;;;;;;2066450;28;20042;-67
2024/03/17 05:53:07;;;;;;;4.45;0.80;;;;;;;;;;2067852;28;20030;-66
2024/03/17 05:54:26;;;;;;;7.15;1.02;;;;;;;;;;2067755;28;20109;-66
2024/03/17 05:55:45;;;;;;;2.53;0.50;;;;;;;;;;2064626;28;20026;-66
2024/03/17 05:57:04;;;;;;;6.00;0.90;;;;;;;;;;2064236;28;20026;-66
2024/03/17 05:58:23;;;;;;;1.52;0.52;;;;;;;;;;2071535;28;20031;-66
2024/03/17 05:59:42;;;;;;;2.47;0.70;;;;;;;;;;2064352;28;20030;-66
2024/03/17 06:01:02;;;;;;;2.45;0.50;;;;;;;;;;2062675;28;20028;-66
2024/03/17 06:02:21;;;;;;;1.73;0.60;;;;;;;;;;2094682;28;20029;-66
2024/03/17 06:03:39;;;;;;;0.73;0.57;;;;;;;;;;2077408;28;20499;-66
2024/03/17 06:05:03;;;;;;;3.40;0.50;;;;;;;;;;2066961;28;20042;-66
2024/03/17 06:06:22;;;;;;;0.90;0.52;;;;;;;;;;2063325;28;20026;-66
2024/03/17 06:07:41;;;;;;;1.73;0.60;;;;;;;;;;2064580;28;20039;-66
2024/03/17 06:09:00;;;;;;;3.17;0.40;;;;;;;;;;2066754;28;20018;-66
2024/03/17 06:10:24;;;;;;;0.73;0.60;;;;;;;;;;2091315;28;20016;-68
2024/03/17 06:11:43;;;;;;;1.25;0.57;;;;;;;;;;2094377;28;20033;-67
2024/03/17 06:13:02;;;;;;;3.95;0.70;;;;;;;;;;2074727;28;20645;-66
2024/03/17 06:14:21;;;;;;;1.55;0.73;;;;;;;;;;2063453;28;20034;-66
2024/03/17 06:15:41;;;;;;;1.55;0.40;;;;;;;;;;2064133;28;20023;-68
2024/03/17 06:17:00;;;;;;;6.80;0.70;;;;;;;;;;2063293;28;20480;-67
2024/03/17 06:18:20;;;;;;;4.82;0.50;;;;;;;;;;2062417;28;20023;-66
2024/03/17 06:19:38;;;;;;;3.30;0.47;;;;;;;;;;2067036;28;20022;-69
2024/03/17 06:21:00;;;;;;;3.40;0.50;;;;;;;;;;2066535;28;20070;-66
2024/03/17 06:22:20;;;;;;;2.25;0.85;;;;;;;;;;2066776;28;20030;-67
2024/03/17 06:23:40;;;;;;;3.47;0.60;;;;;;;;;;2067746;28;20022;-66
2024/03/17 06:24:59;;;;;;;5.30;0.93;;;;;;;;;;2067518;28;20027;-67
2024/03/17 06:26:18;;;;;;;3.05;0.30;;;;;;;;;;2068874;28;20031;-67
2024/03/17 06:27:37;;;;;;;2.17;0.50;;;;;;;;;;2093928;28;20032;-66
2024/03/17 06:28:56;;;;;;;1.65;0.70;;;;;;;;;;2079140;28;20142;-66
2024/03/17 06:30:15;;;;;;;11.63;1.73;;;;;;;;;;2066527;28;20437;-66
2024/03/17 06:31:35;;;;;;;2.75;0.95;;;;;;;;;;2068064;28;20026;-66
2024/03/17 06:32:54;;;;;;;3.20;1.15;;;;;;;;;;2068070;28;20109;-67
2024/03/17 06:34:15;;;;;;;3.63;0.60;;;;;;;;;;2067164;28;20042;-66
2024/03/17 06:35:36;;;;;;;2.70;0.70;;;;;;;;;;2066910;28;20035;-66
2024/03/17 06:36:55;;;;;;;2.08;0.60;;;;;;;;;;2068822;28;20137;-66
2024/03/17 06:38:15;;;;;;;3.17;1.38;;;;;;;;;;2066611;28;20053;-66
2024/03/17 06:39:34;;;;;;;2.63;0.85;;;;;;;;;;2066897;28;20026;-66
2024/03/17 06:40:53;;;;;;;2.53;0.50;;;;;;;;;;2066172;28;20042;-66
2024/03/17 06:42:12;;;;;;;3.05;0.90;;;;;;;;;;2066566;28;20039;-66
2024/03/17 06:43:31;;;;;;;7.93;1.05;;;;;;;;;;2067299;28;20034;-66
2024/03/17 06:44:50;;;;;;;5.63;0.50;;;;;;;;;;2064255;28;20047;-66
2024/03/17 06:46:10;;;;;;;3.30;0.80;;;;;;;;;;2093970;28;20081;-66
2024/03/17 06:47:29;;;;;;;2.55;0.63;;;;;;;;;;2075867;28;20102;-66
2024/03/17 06:48:48;;;;;;;4.32;0.82;;;;;;;;;;2065037;28;20034;-66
2024/03/17 06:50:11;;;;;;;2.65;0.60;;;;;;;;;;2067769;28;20484;-66
2024/03/17 06:51:30;;;;;;;2.45;0.55;;;;;;;;;;2065730;28;20079;-66
2024/03/17 06:52:49;;;;;;;3.33;0.63;;;;;;;;;;2067953;28;20031;-66
2024/03/17 06:54:08;;;;;;;3.03;0.85;;;;;;;;;;2067279;28;20026;-66
2024/03/17 06:55:28;;;;;;;5.05;1.00;;;;;;;;;;2066876;28;20051;-66
2024/03/17 06:56:47;;;;;;;1.30;0.95;;;;;;;;;;2066566;28;20066;-66
2024/03/17 06:58:06;;;;;;;7.28;0.68;;;;;;;;;;2066880;28;20063;-66
2024/03/17 06:59:25;;;;;;;5.90;0.60;;;;;;;;;;2095712;28;20021;-67
2024/03/17 07:00:51;;;;;;;6.07;0.88;;;;;;;;;;2076342;28;20023;-66
2024/03/17 07:02:17;;;;;;;3.00;0.80;;;;;;;;;;2064924;28;20105;-66
2024/03/17 07:03:36;;;;;;;3.35;0.68;;;;;;;;;;2067566;28;20446;-66
2024/03/17 07:04:55;;;;;;;4.25;0.85;;;;;;;;;;2066918;28;20038;-66
2024/03/17 07:06:14;;;;;;;1.35;0.50;;;;;;;;;;2068371;28;20034;-68
2024/03/17 07:07:33;;;;;;;3.63;0.50;;;;;;;;;;2068030;28;20034;-66
2024/03/17 07:08:52;;;;;;;1.73;0.43;;;;;;;;;;2067416;28;20035;-66
2024/03/17 07:10:11;;;;;;;10.57;0.93;;;;;;;;;;2066923;28;20038;-66
2024/03/17 07:11:31;;;;;;;0.88;0.40;;;;;;;;;;2064897;28;21350;-66
2024/03/17 07:12:50;;;;;;;4.32;0.65;;;;;;;;;;2066075;28;20346;-66
2024/03/17 07:14:09;;;;;;;0.80;0.40;;;;;;;;;;2067600;28;20040;-66
2024/03/17 07:15:28;;;;;;;7.40;0.80;;;;;;;;;;2099128;28;20025;-66
2024/03/17 07:16:47;;;;;;;4.20;0.50;;;;;;;;;;2078158;28;20050;-66
2024/03/17 07:18:06;;;;;;;4.68;1.05;;;;;;;;;;2106488;28;20031;-66
2024/03/17 07:19:25;;;;;;;1.88;0.57;;;;;;;;;;2081955;28;20066;-66
2024/03/17 07:20:45;;;;;;;3.95;0.90;;;;;;;;;;2107697;28;20027;-66
2024/03/17 07:22:04;;;;;;;5.85;1.27;;;;;;;;;;2082127;28;20022;-66
2024/03/17 07:23:23;;;;;;;3.88;0.90;;;;;;;;;;2066523;28;20399;-66
2024/03/17 07:24:44;;;;;;;2.33;0.50;;;;;;;;;;2067641;28;20451;-66
2024/03/17 07:26:04;;;;;;;2.67;0.65;;;;;;;;;;2067488;28;20038;-67
2024/03/17 07:27:23;;;;;;;12.25;1.10;;;;;;;;;;2065738;28;20046;-66
2024/03/17 07:28:44;;;;;;;4.10;0.63;;;;;;;;;;2068697;28;20487;-66
2024/03/17 07:30:03;;;;;;;4.20;0.95;;;;;;;;;;2067195;28;20042;-66
2024/03/17 07:31:22;;;;;;;4.95;1.10;;;;;;;;;;2096428;28;20028;-66
2024/03/17 07:32:41;;;;;;;6.38;1.02;;;;;;;;;;2077860;28;20026;-66
2024/03/17 07:34:00;;;;;;;2.20;0.47;;;;;;;;;;2065596;28;20056;-66
2024/03/17 07:35:18;;;;;;;2.33;0.65;;;;;;;;;;2097895;28;20449;-67
2024/03/17 07:36:38;;;;;;;5.85;0.90;;;;;;;;;;2077136;28;20034;-67
2024/03/17 07:37:57;;;;;;;5.60;0.68;;;;;;;;;;2066062;28;20031;-66
2024/03/17 07:39:16;;;;;;;3.15;0.90;;;;;;;;;;2065860;28;20054;-66
2024/03/17 07:40:35;;;;;;;3.13;0.60;;;;;;;;;;2097239;28;20028;-66
2024/03/17 07:41:54;;;;;;;3.85;0.82;;;;;;;;;;2077574;28;20487;-66
2024/03/17 07:43:13;;;;;;;2.05;0.70;;;;;;;;;;2066690;28;20487;-66
2024/03/17 07:44:35;;;;;;;7.78;1.38;;;;;;;;;;2066548;28;20030;-66
2024/03/17 07:45:57;;;;;;;13.07;1.23;;;;;;;;;;2067600;28;20113;-66
2024/03/17 07:47:16;;;;;;;2.22;0.70;;;;;;;;;;2065323;28;20034;-66
2024/03/17 07:48:36;;;;;;;6.35;1.50;;;;;;;;;;2065412;28;20030;-66
2024/03/17 07:49:55;;;;;;;3.65;0.80;;;;;;;;;;2065552;28;20038;-68
2024/03/17 07:51:15;;;;;;;5.50;0.80;;;;;;;;;;2066512;28;20034;-66
2024/03/17 07:52:34;;;;;;;7.53;1.48;;;;;;;;;;2066956;28;20042;-66
2024/03/17 07:53:53;;;;;;;3.35;0.60;;;;;;;;;;2066596;28;20066;-66
2024/03/17 07:55:12;;;;;;;10.80;0.90;;;;;;;;;;2097340;28;20036;-66
2024/03/17 07:56:31;;;;;;;12.50;1.30;;;;;;;;;;2076634;28;20507;-66